sensor_id;sensor_type;location;lat;lon;timestamp;P1;durP1;ratioP1;P2;durP2;ratioP2
77287;SDS011;66345;42.694;23.346;2023-09-07T00:00:29;11.43;;;7.13;;
77287;SDS011;66345;42.694;23.346;2023-09-07T00:02:55;9.98;;;6.70;;
77287;SDS011;66345;42.694;23.346;2023-09-07T00:05:20;12.02;;;6.80;;
77287;SDS011;66345;42.694;23.346;2023-09-07T00:07:46;10.70;;;7.60;;
77287;SDS011;66345;42.694;23.346;2023-09-07T00:10:11;10.67;;;7.43;;
77287;SDS011;66345;42.694;23.346;2023-09-07T00:12:37;12.43;;;7.80;;
77287;SDS011;66345;42.694;23.346;2023-09-07T00:15:04;10.27;;;7.72;;
77287;SDS011;66345;42.694;23.346;2023-09-07T00:17:31;13.25;;;7.78;;
77287;SDS011;66345;42.694;23.346;2023-09-07T00:19:57;9.95;;;7.13;;
77287;SDS011;66345;42.694;23.346;2023-09-07T00:22:23;11.20;;;7.05;;
77287;SDS011;66345;42.694;23.346;2023-09-07T00:24:50;13.63;;;7.95;;
77287;SDS011;66345;42.694;23.346;2023-09-07T00:27:16;11.05;;;8.07;;
77287;SDS011;66345;42.694;23.346;2023-09-07T00:29:41;15.77;;;8.40;;
77287;SDS011;66345;42.694;23.346;2023-09-07T00:32:07;13.77;;;8.23;;
77287;SDS011;66345;42.694;23.346;2023-09-07T00:34:33;13.27;;;7.70;;
77287;SDS011;66345;42.694;23.346;2023-09-07T00:36:59;13.37;;;8.27;;
77287;SDS011;66345;42.694;23.346;2023-09-07T00:39:25;11.40;;;8.35;;
77287;SDS011;66345;42.694;23.346;2023-09-07T00:41:51;12.93;;;8.73;;
77287;SDS011;66345;42.694;23.346;2023-09-07T00:44:16;12.65;;;7.72;;
77287;SDS011;66345;42.694;23.346;2023-09-07T00:46:42;11.23;;;7.70;;
77287;SDS011;66345;42.694;23.346;2023-09-07T00:49:09;15.68;;;8.82;;
77287;SDS011;66345;42.694;23.346;2023-09-07T00:51:36;11.80;;;8.63;;
77287;SDS011;66345;42.694;23.346;2023-09-07T00:54:02;14.48;;;8.18;;
77287;SDS011;66345;42.694;23.346;2023-09-07T00:56:27;11.93;;;8.03;;
77287;SDS011;66345;42.694;23.346;2023-09-07T00:58:53;12.48;;;8.35;;
77287;SDS011;66345;42.694;23.346;2023-09-07T01:01:21;11.57;;;8.40;;
77287;SDS011;66345;42.694;23.346;2023-09-07T01:03:48;12.52;;;8.50;;
77287;SDS011;66345;42.694;23.346;2023-09-07T01:06:20;13.77;;;8.93;;
77287;SDS011;66345;42.694;23.346;2023-09-07T01:08:50;11.40;;;8.82;;
77287;SDS011;66345;42.694;23.346;2023-09-07T01:11:21;13.82;;;8.73;;
77287;SDS011;66345;42.694;23.346;2023-09-07T01:13:48;16.63;;;9.88;;
77287;SDS011;66345;42.694;23.346;2023-09-07T01:16:13;11.47;;;8.60;;
77287;SDS011;66345;42.694;23.346;2023-09-07T01:18:39;13.32;;;9.15;;
77287;SDS011;66345;42.694;23.346;2023-09-07T01:21:05;13.33;;;8.73;;
77287;SDS011;66345;42.694;23.346;2023-09-07T01:23:36;11.75;;;9.20;;
77287;SDS011;66345;42.694;23.346;2023-09-07T01:26:03;12.27;;;9.10;;
77287;SDS011;66345;42.694;23.346;2023-09-07T01:28:30;14.32;;;9.18;;
77287;SDS011;66345;42.694;23.346;2023-09-07T01:30:56;14.87;;;9.37;;
77287;SDS011;66345;42.694;23.346;2023-09-07T01:33:22;14.10;;;9.68;;
77287;SDS011;66345;42.694;23.346;2023-09-07T01:35:48;14.63;;;9.77;;
77287;SDS011;66345;42.694;23.346;2023-09-07T01:38:13;15.57;;;10.27;;
77287;SDS011;66345;42.694;23.346;2023-09-07T01:40:39;13.30;;;9.00;;
77287;SDS011;66345;42.694;23.346;2023-09-07T01:43:04;14.43;;;9.60;;
77287;SDS011;66345;42.694;23.346;2023-09-07T01:45:29;13.85;;;9.38;;
77287;SDS011;66345;42.694;23.346;2023-09-07T01:47:55;13.87;;;10.10;;
77287;SDS011;66345;42.694;23.346;2023-09-07T01:50:20;15.70;;;9.97;;
77287;SDS011;66345;42.694;23.346;2023-09-07T01:52:49;13.53;;;9.60;;
77287;SDS011;66345;42.694;23.346;2023-09-07T01:55:14;14.55;;;10.07;;
77287;SDS011;66345;42.694;23.346;2023-09-07T01:57:40;14.30;;;10.17;;
77287;SDS011;66345;42.694;23.346;2023-09-07T02:00:05;16.55;;;9.82;;
77287;SDS011;66345;42.694;23.346;2023-09-07T02:02:31;14.17;;;9.80;;
77287;SDS011;66345;42.694;23.346;2023-09-07T02:04:56;15.25;;;10.18;;
77287;SDS011;66345;42.694;23.346;2023-09-07T02:07:22;12.70;;;9.63;;
77287;SDS011;66345;42.694;23.346;2023-09-07T02:09:47;16.43;;;10.20;;
77287;SDS011;66345;42.694;23.346;2023-09-07T02:12:13;15.43;;;10.83;;
77287;SDS011;66345;42.694;23.346;2023-09-07T02:14:38;14.27;;;10.50;;
77287;SDS011;66345;42.694;23.346;2023-09-07T02:17:04;18.88;;;10.90;;
77287;SDS011;66345;42.694;23.346;2023-09-07T02:19:29;14.00;;;10.03;;
77287;SDS011;66345;42.694;23.346;2023-09-07T02:21:55;16.35;;;10.45;;
77287;SDS011;66345;42.694;23.346;2023-09-07T02:24:20;14.40;;;10.37;;
77287;SDS011;66345;42.694;23.346;2023-09-07T02:26:46;14.63;;;10.70;;
77287;SDS011;66345;42.694;23.346;2023-09-07T02:29:14;17.57;;;10.70;;
77287;SDS011;66345;42.694;23.346;2023-09-07T02:31:40;14.38;;;10.52;;
77287;SDS011;66345;42.694;23.346;2023-09-07T02:34:06;15.85;;;11.43;;
77287;SDS011;66345;42.694;23.346;2023-09-07T02:36:32;14.03;;;10.63;;
77287;SDS011;66345;42.694;23.346;2023-09-07T02:38:59;15.70;;;10.70;;
77287;SDS011;66345;42.694;23.346;2023-09-07T02:41:25;15.63;;;10.80;;
77287;SDS011;66345;42.694;23.346;2023-09-07T02:43:50;16.17;;;10.65;;
77287;SDS011;66345;42.694;23.346;2023-09-07T02:46:16;14.30;;;10.47;;
77287;SDS011;66345;42.694;23.346;2023-09-07T02:48:42;14.33;;;10.50;;
77287;SDS011;66345;42.694;23.346;2023-09-07T02:51:07;15.68;;;10.73;;
77287;SDS011;66345;42.694;23.346;2023-09-07T02:53:32;16.30;;;11.30;;
77287;SDS011;66345;42.694;23.346;2023-09-07T02:55:58;15.70;;;10.85;;
77287;SDS011;66345;42.694;23.346;2023-09-07T02:58:26;15.93;;;10.50;;
77287;SDS011;66345;42.694;23.346;2023-09-07T03:00:52;14.98;;;10.77;;
77287;SDS011;66345;42.694;23.346;2023-09-07T03:03:18;15.85;;;11.20;;
77287;SDS011;66345;42.694;23.346;2023-09-07T03:05:43;16.60;;;10.87;;
77287;SDS011;66345;42.694;23.346;2023-09-07T03:08:10;18.15;;;11.05;;
77287;SDS011;66345;42.694;23.346;2023-09-07T03:10:36;16.67;;;11.43;;
77287;SDS011;66345;42.694;23.346;2023-09-07T03:13:02;16.75;;;11.23;;
77287;SDS011;66345;42.694;23.346;2023-09-07T03:15:28;17.08;;;11.32;;
77287;SDS011;66345;42.694;23.346;2023-09-07T03:17:54;19.13;;;12.43;;
77287;SDS011;66345;42.694;23.346;2023-09-07T03:20:19;18.97;;;12.47;;
77287;SDS011;66345;42.694;23.346;2023-09-07T03:22:45;17.15;;;12.27;;
77287;SDS011;66345;42.694;23.346;2023-09-07T03:25:10;18.60;;;12.15;;
77287;SDS011;66345;42.694;23.346;2023-09-07T03:27:36;18.83;;;12.60;;
77287;SDS011;66345;42.694;23.346;2023-09-07T03:30:03;18.27;;;12.20;;
77287;SDS011;66345;42.694;23.346;2023-09-07T03:32:29;17.35;;;12.63;;
77287;SDS011;66345;42.694;23.346;2023-09-07T03:34:58;18.08;;;12.25;;
77287;SDS011;66345;42.694;23.346;2023-09-07T03:37:24;16.65;;;11.80;;
77287;SDS011;66345;42.694;23.346;2023-09-07T03:39:50;18.27;;;12.77;;
77287;SDS011;66345;42.694;23.346;2023-09-07T03:42:16;20.27;;;12.73;;
77287;SDS011;66345;42.694;23.346;2023-09-07T03:44:41;17.33;;;12.70;;
77287;SDS011;66345;42.694;23.346;2023-09-07T03:47:06;16.73;;;12.70;;
77287;SDS011;66345;42.694;23.346;2023-09-07T03:49:33;17.75;;;12.23;;
77287;SDS011;66345;42.694;23.346;2023-09-07T03:51:59;18.30;;;13.50;;
77287;SDS011;66345;42.694;23.346;2023-09-07T03:54:24;16.23;;;12.63;;
77287;SDS011;66345;42.694;23.346;2023-09-07T03:56:50;18.10;;;12.13;;
77287;SDS011;66345;42.694;23.346;2023-09-07T03:59:15;18.93;;;12.97;;
77287;SDS011;66345;42.694;23.346;2023-09-07T04:01:41;16.57;;;12.90;;
77287;SDS011;66345;42.694;23.346;2023-09-07T04:04:06;17.50;;;12.50;;
77287;SDS011;66345;42.694;23.346;2023-09-07T04:06:31;16.88;;;12.68;;
77287;SDS011;66345;42.694;23.346;2023-09-07T04:08:57;19.58;;;12.75;;
77287;SDS011;66345;42.694;23.346;2023-09-07T04:11:22;18.63;;;12.47;;
77287;SDS011;66345;42.694;23.346;2023-09-07T04:13:48;18.87;;;13.17;;
77287;SDS011;66345;42.694;23.346;2023-09-07T04:16:13;19.35;;;13.52;;
77287;SDS011;66345;42.694;23.346;2023-09-07T04:18:39;19.37;;;13.10;;
77287;SDS011;66345;42.694;23.346;2023-09-07T04:21:05;19.70;;;13.03;;
77287;SDS011;66345;42.694;23.346;2023-09-07T04:23:31;22.88;;;13.50;;
77287;SDS011;66345;42.694;23.346;2023-09-07T04:26:06;19.70;;;14.07;;
77287;SDS011;66345;42.694;23.346;2023-09-07T04:28:33;18.60;;;13.68;;
77287;SDS011;66345;42.694;23.346;2023-09-07T04:30:59;21.10;;;13.73;;
77287;SDS011;66345;42.694;23.346;2023-09-07T04:33:24;19.33;;;13.70;;
77287;SDS011;66345;42.694;23.346;2023-09-07T04:35:50;21.10;;;13.03;;
77287;SDS011;66345;42.694;23.346;2023-09-07T04:38:15;19.15;;;13.27;;
77287;SDS011;66345;42.694;23.346;2023-09-07T04:40:41;19.63;;;13.18;;
77287;SDS011;66345;42.694;23.346;2023-09-07T04:43:06;18.93;;;12.77;;
77287;SDS011;66345;42.694;23.346;2023-09-07T04:45:31;19.33;;;13.40;;
77287;SDS011;66345;42.694;23.346;2023-09-07T04:47:57;17.87;;;13.43;;
77287;SDS011;66345;42.694;23.346;2023-09-07T04:50:22;21.95;;;13.45;;
77287;SDS011;66345;42.694;23.346;2023-09-07T04:52:47;22.20;;;13.13;;
77287;SDS011;66345;42.694;23.346;2023-09-07T04:55:22;19.47;;;13.27;;
77287;SDS011;66345;42.694;23.346;2023-09-07T04:58:03;19.70;;;13.05;;
77287;SDS011;66345;42.694;23.346;2023-09-07T05:00:29;19.43;;;12.83;;
77287;SDS011;66345;42.694;23.346;2023-09-07T05:02:54;19.70;;;14.80;;
77287;SDS011;66345;42.694;23.346;2023-09-07T05:05:20;21.03;;;13.93;;
77287;SDS011;66345;42.694;23.346;2023-09-07T05:07:45;18.60;;;13.90;;
77287;SDS011;66345;42.694;23.346;2023-09-07T05:10:10;17.10;;;12.93;;
77287;SDS011;66345;42.694;23.346;2023-09-07T05:12:37;22.65;;;14.15;;
77287;SDS011;66345;42.694;23.346;2023-09-07T05:15:03;21.07;;;14.57;;
77287;SDS011;66345;42.694;23.346;2023-09-07T05:17:32;21.25;;;14.77;;
77287;SDS011;66345;42.694;23.346;2023-09-07T05:19:57;19.17;;;13.37;;
77287;SDS011;66345;42.694;23.346;2023-09-07T05:22:40;18.47;;;12.80;;
77287;SDS011;66345;42.694;23.346;2023-09-07T05:25:09;19.88;;;13.80;;
77287;SDS011;66345;42.694;23.346;2023-09-07T05:27:35;19.70;;;13.13;;
77287;SDS011;66345;42.694;23.346;2023-09-07T05:30:01;19.10;;;12.90;;
77287;SDS011;66345;42.694;23.346;2023-09-07T05:32:27;20.45;;;12.82;;
77287;SDS011;66345;42.694;23.346;2023-09-07T05:34:52;19.60;;;12.80;;
77287;SDS011;66345;42.694;23.346;2023-09-07T05:37:18;19.00;;;11.97;;
77287;SDS011;66345;42.694;23.346;2023-09-07T05:39:43;17.83;;;12.50;;
77287;SDS011;66345;42.694;23.346;2023-09-07T05:42:09;18.60;;;11.90;;
77287;SDS011;66345;42.694;23.346;2023-09-07T05:44:34;22.30;;;12.90;;
77287;SDS011;66345;42.694;23.346;2023-09-07T05:46:59;18.42;;;12.18;;
77287;SDS011;66345;42.694;23.346;2023-09-07T05:49:27;21.42;;;13.60;;
77287;SDS011;66345;42.694;23.346;2023-09-07T05:51:53;20.83;;;12.27;;
77287;SDS011;66345;42.694;23.346;2023-09-07T05:54:18;17.27;;;12.00;;
77287;SDS011;66345;42.694;23.346;2023-09-07T05:56:43;17.27;;;12.32;;
77287;SDS011;66345;42.694;23.346;2023-09-07T05:59:09;17.97;;;12.00;;
77287;SDS011;66345;42.694;23.346;2023-09-07T06:01:34;19.33;;;12.57;;
77287;SDS011;66345;42.694;23.346;2023-09-07T06:04:00;20.20;;;12.53;;
77287;SDS011;66345;42.694;23.346;2023-09-07T06:06:25;17.33;;;11.95;;
77287;SDS011;66345;42.694;23.346;2023-09-07T06:08:51;17.83;;;12.43;;
77287;SDS011;66345;42.694;23.346;2023-09-07T06:11:16;21.53;;;12.00;;
77287;SDS011;66345;42.694;23.346;2023-09-07T06:13:41;18.00;;;10.90;;
77287;SDS011;66345;42.694;23.346;2023-09-07T06:16:07;17.50;;;11.23;;
77287;SDS011;66345;42.694;23.346;2023-09-07T06:18:32;14.63;;;10.07;;
77287;SDS011;66345;42.694;23.346;2023-09-07T06:20:58;13.40;;;9.97;;
77287;SDS011;66345;42.694;23.346;2023-09-07T06:23:23;13.43;;;9.43;;
77287;SDS011;66345;42.694;23.346;2023-09-07T06:25:49;12.03;;;8.27;;
77287;SDS011;66345;42.694;23.346;2023-09-07T06:28:14;12.23;;;8.48;;
77287;SDS011;66345;42.694;23.346;2023-09-07T06:30:40;12.13;;;9.77;;
77287;SDS011;66345;42.694;23.346;2023-09-07T06:33:05;14.07;;;8.70;;
77287;SDS011;66345;42.694;23.346;2023-09-07T06:35:30;12.15;;;8.88;;
77287;SDS011;66345;42.694;23.346;2023-09-07T06:37:56;12.60;;;8.50;;
77287;SDS011;66345;42.694;23.346;2023-09-07T06:40:22;11.47;;;8.87;;
77287;SDS011;66345;42.694;23.346;2023-09-07T06:42:47;10.85;;;8.55;;
77287;SDS011;66345;42.694;23.346;2023-09-07T06:45:13;12.00;;;8.73;;
77287;SDS011;66345;42.694;23.346;2023-09-07T06:47:38;12.67;;;8.17;;
77287;SDS011;66345;42.694;23.346;2023-09-07T06:50:04;11.05;;;7.90;;
77287;SDS011;66345;42.694;23.346;2023-09-07T06:52:30;10.13;;;7.73;;
77287;SDS011;66345;42.694;23.346;2023-09-07T06:54:56;10.95;;;7.70;;
77287;SDS011;66345;42.694;23.346;2023-09-07T06:57:21;12.07;;;8.17;;
77287;SDS011;66345;42.694;23.346;2023-09-07T06:59:47;11.07;;;7.70;;
77287;SDS011;66345;42.694;23.346;2023-09-07T07:02:13;11.73;;;7.30;;
77287;SDS011;66345;42.694;23.346;2023-09-07T07:04:39;13.32;;;7.57;;
77287;SDS011;66345;42.694;23.346;2023-09-07T07:07:05;9.00;;;6.80;;
77287;SDS011;66345;42.694;23.346;2023-09-07T07:09:31;8.68;;;7.22;;
77287;SDS011;66345;42.694;23.346;2023-09-07T07:11:58;10.40;;;7.50;;
77287;SDS011;66345;42.694;23.346;2023-09-07T07:14:26;9.60;;;7.50;;
77287;SDS011;66345;42.694;23.346;2023-09-07T07:16:51;12.25;;;7.05;;
77287;SDS011;66345;42.694;23.346;2023-09-07T07:19:16;11.10;;;6.93;;
77287;SDS011;66345;42.694;23.346;2023-09-07T07:21:42;11.70;;;7.77;;
77287;SDS011;66345;42.694;23.346;2023-09-07T07:24:07;10.77;;;7.20;;
77287;SDS011;66345;42.694;23.346;2023-09-07T07:26:34;9.68;;;6.72;;
77287;SDS011;66345;42.694;23.346;2023-09-07T07:28:59;9.00;;;6.47;;
77287;SDS011;66345;42.694;23.346;2023-09-07T07:31:25;10.20;;;6.30;;
77287;SDS011;66345;42.694;23.346;2023-09-07T07:33:50;13.63;;;6.43;;
77287;SDS011;66345;42.694;23.346;2023-09-07T07:36:16;12.23;;;7.10;;
77287;SDS011;66345;42.694;23.346;2023-09-07T07:38:41;10.90;;;6.13;;
77287;SDS011;66345;42.694;23.346;2023-09-07T07:41:07;9.30;;;6.23;;
77287;SDS011;66345;42.694;23.346;2023-09-07T07:43:32;11.03;;;6.90;;
77287;SDS011;66345;42.694;23.346;2023-09-07T07:45:58;13.63;;;6.85;;
77287;SDS011;66345;42.694;23.346;2023-09-07T07:48:24;11.95;;;6.10;;
77287;SDS011;66345;42.694;23.346;2023-09-07T07:50:50;8.20;;;6.50;;
77287;SDS011;66345;42.694;23.346;2023-09-07T07:53:15;14.17;;;6.50;;
77287;SDS011;66345;42.694;23.346;2023-09-07T07:55:41;9.48;;;5.97;;
77287;SDS011;66345;42.694;23.346;2023-09-07T07:58:07;12.07;;;6.43;;
77287;SDS011;66345;42.694;23.346;2023-09-07T08:00:34;9.93;;;6.30;;
77287;SDS011;66345;42.694;23.346;2023-09-07T08:03:03;8.45;;;6.00;;
77287;SDS011;66345;42.694;23.346;2023-09-07T08:05:31;9.85;;;5.78;;
77287;SDS011;66345;42.694;23.346;2023-09-07T08:07:56;12.50;;;6.00;;
77287;SDS011;66345;42.694;23.346;2023-09-07T08:10:22;9.07;;;5.45;;
77287;SDS011;66345;42.694;23.346;2023-09-07T08:12:48;8.83;;;5.37;;
77287;SDS011;66345;42.694;23.346;2023-09-07T08:15:13;8.00;;;5.30;;
77287;SDS011;66345;42.694;23.346;2023-09-07T08:17:39;10.18;;;5.25;;
77287;SDS011;66345;42.694;23.346;2023-09-07T08:20:05;9.48;;;5.50;;
77287;SDS011;66345;42.694;23.346;2023-09-07T08:22:33;9.40;;;5.33;;
77287;SDS011;66345;42.694;23.346;2023-09-07T08:25:01;11.07;;;6.07;;
77287;SDS011;66345;42.694;23.346;2023-09-07T08:27:27;7.53;;;5.68;;
77287;SDS011;66345;42.694;23.346;2023-09-07T08:29:52;7.80;;;5.27;;
77287;SDS011;66345;42.694;23.346;2023-09-07T08:32:19;8.13;;;5.80;;
77287;SDS011;66345;42.694;23.346;2023-09-07T08:34:44;8.83;;;5.70;;
77287;SDS011;66345;42.694;23.346;2023-09-07T08:37:10;8.43;;;5.50;;
77287;SDS011;66345;42.694;23.346;2023-09-07T08:39:35;12.40;;;5.32;;
77287;SDS011;66345;42.694;23.346;2023-09-07T08:42:07;7.87;;;5.67;;
77287;SDS011;66345;42.694;23.346;2023-09-07T08:44:33;7.55;;;5.90;;
77287;SDS011;66345;42.694;23.346;2023-09-07T08:47:02;6.43;;;5.30;;
77287;SDS011;66345;42.694;23.346;2023-09-07T08:49:29;8.25;;;5.35;;
77287;SDS011;66345;42.694;23.346;2023-09-07T08:51:59;8.27;;;5.67;;
77287;SDS011;66345;42.694;23.346;2023-09-07T08:54:25;7.13;;;5.65;;
77287;SDS011;66345;42.694;23.346;2023-09-07T08:56:52;8.38;;;5.70;;
77287;SDS011;66345;42.694;23.346;2023-09-07T08:59:17;9.15;;;5.65;;
77287;SDS011;66345;42.694;23.346;2023-09-07T09:01:43;7.77;;;5.10;;
77287;SDS011;66345;42.694;23.346;2023-09-07T09:04:09;10.13;;;5.63;;
77287;SDS011;66345;42.694;23.346;2023-09-07T09:06:34;7.25;;;4.90;;
77287;SDS011;66345;42.694;23.346;2023-09-07T09:08:59;7.60;;;5.33;;
77287;SDS011;66345;42.694;23.346;2023-09-07T09:11:25;7.47;;;5.73;;
77287;SDS011;66345;42.694;23.346;2023-09-07T09:13:53;6.93;;;5.15;;
77287;SDS011;66345;42.694;23.346;2023-09-07T09:16:19;9.20;;;5.75;;
77287;SDS011;66345;42.694;23.346;2023-09-07T09:18:48;8.45;;;5.72;;
77287;SDS011;66345;42.694;23.346;2023-09-07T09:21:21;7.37;;;5.60;;
77287;SDS011;66345;42.694;23.346;2023-09-07T09:23:55;8.00;;;5.40;;
77287;SDS011;66345;42.694;23.346;2023-09-07T09:26:22;8.27;;;5.18;;
77287;SDS011;66345;42.694;23.346;2023-09-07T09:28:48;7.03;;;5.47;;
77287;SDS011;66345;42.694;23.346;2023-09-07T09:31:16;7.13;;;5.43;;
77287;SDS011;66345;42.694;23.346;2023-09-07T09:33:42;9.20;;;5.37;;
77287;SDS011;66345;42.694;23.346;2023-09-07T09:36:12;7.85;;;5.88;;
77287;SDS011;66345;42.694;23.346;2023-09-07T09:38:38;9.03;;;5.13;;
77287;SDS011;66345;42.694;23.346;2023-09-07T09:41:03;7.90;;;5.15;;
77287;SDS011;66345;42.694;23.346;2023-09-07T09:43:30;7.97;;;4.78;;
77287;SDS011;66345;42.694;23.346;2023-09-07T09:45:55;9.57;;;6.60;;
77287;SDS011;66345;42.694;23.346;2023-09-07T09:48:22;9.77;;;5.07;;
77287;SDS011;66345;42.694;23.346;2023-09-07T09:50:48;13.33;;;8.80;;
77287;SDS011;66345;42.694;23.346;2023-09-07T09:53:15;8.20;;;5.22;;
77287;SDS011;66345;42.694;23.346;2023-09-07T09:55:44;10.85;;;4.72;;
77287;SDS011;66345;42.694;23.346;2023-09-07T09:58:11;6.65;;;4.82;;
77287;SDS011;66345;42.694;23.346;2023-09-07T10:00:37;6.68;;;4.50;;
77287;SDS011;66345;42.694;23.346;2023-09-07T10:05:48;8.38;;;4.53;;
77287;SDS011;66345;42.694;23.346;2023-09-07T10:08:15;7.97;;;4.93;;
77287;SDS011;66345;42.694;23.346;2023-09-07T10:10:43;7.63;;;4.70;;
77287;SDS011;66345;42.694;23.346;2023-09-07T10:13:13;7.18;;;4.70;;
77287;SDS011;66345;42.694;23.346;2023-09-07T10:15:39;6.78;;;4.90;;
77287;SDS011;66345;42.694;23.346;2023-09-07T10:18:15;8.70;;;5.20;;
77287;SDS011;66345;42.694;23.346;2023-09-07T10:23:14;8.25;;;4.65;;
77287;SDS011;66345;42.694;23.346;2023-09-07T10:25:40;8.33;;;4.67;;
77287;SDS011;66345;42.694;23.346;2023-09-07T10:28:16;7.97;;;4.57;;
77287;SDS011;66345;42.694;23.346;2023-09-07T10:30:46;8.32;;;4.45;;
77287;SDS011;66345;42.694;23.346;2023-09-07T10:33:24;9.17;;;4.90;;
77287;SDS011;66345;42.694;23.346;2023-09-07T10:35:50;10.02;;;5.28;;
77287;SDS011;66345;42.694;23.346;2023-09-07T10:38:16;11.87;;;4.93;;
77287;SDS011;66345;42.694;23.346;2023-09-07T10:40:43;7.03;;;4.83;;
77287;SDS011;66345;42.694;23.346;2023-09-07T10:43:10;9.33;;;5.20;;
77287;SDS011;66345;42.694;23.346;2023-09-07T10:45:35;13.83;;;11.67;;
77287;SDS011;66345;42.694;23.346;2023-09-07T10:48:01;9.00;;;4.73;;
77287;SDS011;66345;42.694;23.346;2023-09-07T10:50:29;10.80;;;5.60;;
77287;SDS011;66345;42.694;23.346;2023-09-07T10:52:54;7.57;;;4.83;;
77287;SDS011;66345;42.694;23.346;2023-09-07T10:55:20;8.35;;;4.72;;
77287;SDS011;66345;42.694;23.346;2023-09-07T10:57:46;12.00;;;5.17;;
77287;SDS011;66345;42.694;23.346;2023-09-07T11:00:13;12.10;;;5.10;;
77287;SDS011;66345;42.694;23.346;2023-09-07T11:02:39;9.43;;;4.70;;
77287;SDS011;66345;42.694;23.346;2023-09-07T11:05:06;6.25;;;4.18;;
77287;SDS011;66345;42.694;23.346;2023-09-07T11:07:33;6.80;;;4.13;;
77287;SDS011;66345;42.694;23.346;2023-09-07T11:09:59;7.45;;;3.95;;
77287;SDS011;66345;42.694;23.346;2023-09-07T11:12:25;7.63;;;4.43;;
77287;SDS011;66345;42.694;23.346;2023-09-07T11:14:50;6.75;;;3.83;;
77287;SDS011;66345;42.694;23.346;2023-09-07T11:17:17;8.53;;;3.60;;
77287;SDS011;66345;42.694;23.346;2023-09-07T11:19:43;6.75;;;4.03;;
77287;SDS011;66345;42.694;23.346;2023-09-07T11:22:11;9.07;;;4.07;;
77287;SDS011;66345;42.694;23.346;2023-09-07T11:24:37;8.75;;;4.20;;
77287;SDS011;66345;42.694;23.346;2023-09-07T11:27:02;8.60;;;4.00;;
77287;SDS011;66345;42.694;23.346;2023-09-07T11:29:30;9.35;;;4.60;;
77287;SDS011;66345;42.694;23.346;2023-09-07T11:32:09;6.97;;;3.83;;
77287;SDS011;66345;42.694;23.346;2023-09-07T11:34:46;9.40;;;4.32;;
77287;SDS011;66345;42.694;23.346;2023-09-07T11:37:13;8.90;;;4.27;;
77287;SDS011;66345;42.694;23.346;2023-09-07T11:39:38;8.10;;;4.00;;
77287;SDS011;66345;42.694;23.346;2023-09-07T11:42:04;8.43;;;4.43;;
77287;SDS011;66345;42.694;23.346;2023-09-07T11:44:29;5.87;;;3.73;;
77287;SDS011;66345;42.694;23.346;2023-09-07T11:46:55;5.83;;;3.67;;
77287;SDS011;66345;42.694;23.346;2023-09-07T11:49:20;7.20;;;3.97;;
77287;SDS011;66345;42.694;23.346;2023-09-07T11:51:46;8.02;;;4.15;;
77287;SDS011;66345;42.694;23.346;2023-09-07T11:54:12;5.95;;;3.83;;
77287;SDS011;66345;42.694;23.346;2023-09-07T11:56:38;6.27;;;4.17;;
77287;SDS011;66345;42.694;23.346;2023-09-07T11:59:08;7.60;;;4.20;;
77287;SDS011;66345;42.694;23.346;2023-09-07T12:01:34;10.55;;;4.25;;
77287;SDS011;66345;42.694;23.346;2023-09-07T12:04:00;7.78;;;3.90;;
77287;SDS011;66345;42.694;23.346;2023-09-07T12:06:25;6.30;;;4.10;;
77287;SDS011;66345;42.694;23.346;2023-09-07T12:08:58;7.35;;;3.95;;
77287;SDS011;66345;42.694;23.346;2023-09-07T12:11:25;7.88;;;3.90;;
77287;SDS011;66345;42.694;23.346;2023-09-07T12:13:50;11.13;;;3.77;;
77287;SDS011;66345;42.694;23.346;2023-09-07T12:16:16;8.30;;;3.70;;
77287;SDS011;66345;42.694;23.346;2023-09-07T12:18:41;7.93;;;4.00;;
77287;SDS011;66345;42.694;23.346;2023-09-07T12:21:06;8.23;;;4.03;;
77287;SDS011;66345;42.694;23.346;2023-09-07T12:23:33;7.27;;;4.10;;
77287;SDS011;66345;42.694;23.346;2023-09-07T12:25:58;6.50;;;3.90;;
77287;SDS011;66345;42.694;23.346;2023-09-07T12:28:24;6.93;;;3.80;;
77287;SDS011;66345;42.694;23.346;2023-09-07T12:30:51;6.72;;;3.65;;
77287;SDS011;66345;42.694;23.346;2023-09-07T12:33:16;7.00;;;3.57;;
77287;SDS011;66345;42.694;23.346;2023-09-07T12:35:42;8.15;;;4.03;;
77287;SDS011;66345;42.694;23.346;2023-09-07T12:38:13;6.87;;;3.87;;
77287;SDS011;66345;42.694;23.346;2023-09-07T12:40:59;7.18;;;3.80;;
77287;SDS011;66345;42.694;23.346;2023-09-07T12:43:24;10.20;;;4.20;;
77287;SDS011;66345;42.694;23.346;2023-09-07T12:45:50;6.72;;;4.05;;
77287;SDS011;66345;42.694;23.346;2023-09-07T12:48:15;6.43;;;3.60;;
77287;SDS011;66345;42.694;23.346;2023-09-07T12:50:41;5.80;;;3.73;;
77287;SDS011;66345;42.694;23.346;2023-09-07T12:53:08;10.50;;;4.07;;
77287;SDS011;66345;42.694;23.346;2023-09-07T12:55:33;7.60;;;3.60;;
77287;SDS011;66345;42.694;23.346;2023-09-07T12:57:59;10.35;;;3.63;;
77287;SDS011;66345;42.694;23.346;2023-09-07T13:00:25;5.65;;;3.65;;
77287;SDS011;66345;42.694;23.346;2023-09-07T13:02:51;8.10;;;3.63;;
77287;SDS011;66345;42.694;23.346;2023-09-07T13:05:18;15.57;;;3.92;;
77287;SDS011;66345;42.694;23.346;2023-09-07T13:07:49;7.72;;;3.58;;
77287;SDS011;66345;42.694;23.346;2023-09-07T13:10:29;7.23;;;3.80;;
77287;SDS011;66345;42.694;23.346;2023-09-07T13:12:54;7.68;;;3.53;;
77287;SDS011;66345;42.694;23.346;2023-09-07T13:15:21;9.70;;;3.53;;
77287;SDS011;66345;42.694;23.346;2023-09-07T13:17:47;5.85;;;3.40;;
77287;SDS011;66345;42.694;23.346;2023-09-07T13:20:12;6.47;;;3.70;;
77287;SDS011;66345;42.694;23.346;2023-09-07T13:22:38;5.70;;;3.45;;
77287;SDS011;66345;42.694;23.346;2023-09-07T13:25:04;7.13;;;3.77;;
77287;SDS011;66345;42.694;23.346;2023-09-07T13:27:31;6.80;;;3.50;;
77287;SDS011;66345;42.694;23.346;2023-09-07T13:29:56;6.65;;;3.25;;
77287;SDS011;66345;42.694;23.346;2023-09-07T13:32:22;5.47;;;3.70;;
77287;SDS011;66345;42.694;23.346;2023-09-07T13:34:57;7.20;;;3.47;;
77287;SDS011;66345;42.694;23.346;2023-09-07T13:37:23;5.77;;;3.70;;
77287;SDS011;66345;42.694;23.346;2023-09-07T13:39:48;4.85;;;3.45;;
77287;SDS011;66345;42.694;23.346;2023-09-07T13:42:13;6.23;;;3.30;;
77287;SDS011;66345;42.694;23.346;2023-09-07T13:44:40;7.30;;;3.47;;
77287;SDS011;66345;42.694;23.346;2023-09-07T13:47:05;8.90;;;3.87;;
77287;SDS011;66345;42.694;23.346;2023-09-07T13:49:31;8.07;;;3.47;;
77287;SDS011;66345;42.694;23.346;2023-09-07T13:51:57;21.45;;;12.57;;
77287;SDS011;66345;42.694;23.346;2023-09-07T13:54:22;8.17;;;4.50;;
77287;SDS011;66345;42.694;23.346;2023-09-07T13:56:48;6.93;;;3.50;;
77287;SDS011;66345;42.694;23.346;2023-09-07T13:59:13;7.10;;;3.90;;
77287;SDS011;66345;42.694;23.346;2023-09-07T14:01:39;6.20;;;3.97;;
77287;SDS011;66345;42.694;23.346;2023-09-07T14:04:04;9.50;;;4.13;;
77287;SDS011;66345;42.694;23.346;2023-09-07T14:06:30;8.30;;;4.10;;
77287;SDS011;66345;42.694;23.346;2023-09-07T14:08:55;9.80;;;4.20;;
77287;SDS011;66345;42.694;23.346;2023-09-07T14:11:22;7.13;;;3.90;;
77287;SDS011;66345;42.694;23.346;2023-09-07T14:13:48;6.27;;;3.70;;
77287;SDS011;66345;42.694;23.346;2023-09-07T14:16:17;8.00;;;4.40;;
77287;SDS011;66345;42.694;23.346;2023-09-07T14:18:44;6.72;;;3.55;;
77287;SDS011;66345;42.694;23.346;2023-09-07T14:21:10;7.23;;;4.10;;
77287;SDS011;66345;42.694;23.346;2023-09-07T14:23:35;6.60;;;3.77;;